Aviation Digital Data Service (ADDS)

Output produced by METARs form (1107 UTC 19 February 2019)
found at http://www.aviationweather.gov/metar/data/
 
METAR text: KSDF 191056Z 05007KT 10SM OVC230 M02/M07 A3058 RMK AO2 SLP359 T10221067
Conditions at: KSDF (LOUISVILLE , KY, US) observed 1056 UTC 19 February 2019
Temperature: -2.2°C (28°F)
Dewpoint: -6.7°C (20°F) [RH = 71%]
Pressure (altimeter): 30.58 inches Hg (1035.6 mb)
[Sea-level pressure: 1035.9 mb]
Winds: from the NE (50 degrees) at 8 MPH (7 knots; 3.6 m/s)
Visibility: 10 or more miles (16+ km)
Ceiling: 23000 feet AGL
Clouds: overcast cloud deck at 23000 feet AGL
Weather: no significant weather observed at this time

METAR text: KSDF 190956Z 06005KT 10SM OVC230 M02/M07 A3057 RMK AO2 SLP357 T10171067
Conditions at: KSDF (LOUISVILLE , KY, US) observed 0956 UTC 19 February 2019
Temperature: -1.7°C (29°F)
Dewpoint: -6.7°C (20°F) [RH = 69%]
Pressure (altimeter): 30.57 inches Hg (1035.3 mb)
[Sea-level pressure: 1035.7 mb]
Winds: from the ENE (60 degrees) at 6 MPH (5 knots; 2.6 m/s)
Visibility: 10 or more miles (16+ km)
Ceiling: 23000 feet AGL
Clouds: overcast cloud deck at 23000 feet AGL
Weather: no significant weather observed at this time

METAR text: KSDF 190856Z 02005KT 10SM FEW200 OVC230 M02/M06 A3058 RMK AO2 SLP358 T10171061 51012
Conditions at: KSDF (LOUISVILLE , KY, US) observed 0856 UTC 19 February 2019
Temperature: -1.7°C (29°F)
Dewpoint: -6.1°C (21°F) [RH = 72%]
Pressure (altimeter): 30.58 inches Hg (1035.6 mb)
[Sea-level pressure: 1035.8 mb]
Winds: from the NNE (20 degrees) at 6 MPH (5 knots; 2.6 m/s)
Visibility: 10 or more miles (16+ km)
Ceiling: 23000 feet AGL
Clouds: few clouds at 20000 feet AGL
overcast cloud deck at 23000 feet AGL
Weather: no significant weather observed at this time

METAR text: KSDF 190756Z 02004KT 10SM FEW025 SCT200 BKN250 M02/M06 A3056 RMK AO2 SLP353 T10221061
Conditions at: KSDF (LOUISVILLE , KY, US) observed 0756 UTC 19 February 2019
Temperature: -2.2°C (28°F)
Dewpoint: -6.1°C (21°F) [RH = 75%]
Pressure (altimeter): 30.56 inches Hg (1035.0 mb)
[Sea-level pressure: 1035.3 mb]
Winds: from the NNE (20 degrees) at 5 MPH (4 knots; 2.1 m/s)
Visibility: 10 or more miles (16+ km)
Ceiling: 25000 feet AGL
Clouds: few clouds at 2500 feet AGL
scattered clouds at 20000 feet AGL
broken clouds at 25000 feet AGL
Weather: no significant weather observed at this time

METAR text: KSDF 190656Z 00000KT 10SM FEW028 BKN250 M02/M06 A3056 RMK AO2 SLP351 T10171061
Conditions at: KSDF (LOUISVILLE , KY, US) observed 0656 UTC 19 February 2019
Temperature: -1.7°C (29°F)
Dewpoint: -6.1°C (21°F) [RH = 72%]
Pressure (altimeter): 30.56 inches Hg (1035.0 mb)
[Sea-level pressure: 1035.1 mb]
Winds: calm
Visibility: 10 or more miles (16+ km)
Ceiling: 25000 feet AGL
Clouds: few clouds at 2800 feet AGL
broken clouds at 25000 feet AGL
Weather: no significant weather observed at this time

METAR text: KSDF 190634Z 06003KT 10SM SCT028 BKN250 M01/M06 A3055 RMK AO2 T10111056
Conditions at: KSDF (LOUISVILLE , KY, US) observed 0634 UTC 19 February 2019
Temperature: -1.1°C (30°F)
Dewpoint: -5.6°C (22°F) [RH = 71%]
Pressure (altimeter): 30.55 inches Hg (1034.6 mb)
Winds: from the ENE (60 degrees) at 3 MPH (3 knots; 1.5 m/s)
Visibility: 10 or more miles (16+ km)
Ceiling: 25000 feet AGL
Clouds: scattered clouds at 2800 feet AGL
broken clouds at 25000 feet AGL
Weather: no significant weather observed at this time

METAR text: KSDF 190614Z 06003KT 10SM BKN026 BKN250 M01/M06 A3054 RMK AO2 T10061056
Conditions at: KSDF (LOUISVILLE , KY, US) observed 0614 UTC 19 February 2019
Temperature: -0.6°C (31°F)
Dewpoint: -5.6°C (22°F) [RH = 69%]
Pressure (altimeter): 30.54 inches Hg (1034.3 mb)
Winds: from the ENE (60 degrees) at 3 MPH (3 knots; 1.5 m/s)
Visibility: 10 or more miles (16+ km)
Ceiling: 2600 feet AGL
Clouds: broken clouds at 2600 feet AGL
broken clouds at 25000 feet AGL
Weather: no significant weather observed at this time

METAR text: KSDF 190556Z 04004KT 10SM FEW035 BKN250 M01/M06 A3054 RMK AO2 SLP346 T10111056 10011 21011 53009
Conditions at: KSDF (LOUISVILLE , KY, US) observed 0556 UTC 19 February 2019
Temperature: -1.1°C (30°F)
Dewpoint: -5.6°C (22°F) [RH = 71%]
Pressure (altimeter): 30.54 inches Hg (1034.3 mb)
[Sea-level pressure: 1034.6 mb]
Winds: from the NE (40 degrees) at 5 MPH (4 knots; 2.1 m/s)
Visibility: 10 or more miles (16+ km)
Ceiling: 25000 feet AGL
Clouds: few clouds at 3500 feet AGL
broken clouds at 25000 feet AGL
Weather: no significant weather observed at this time

METAR text: KSDF 190456Z 01005KT 10SM BKN250 M01/M06 A3052 RMK AO2 SLP342 T10111056 400331011
Conditions at: KSDF (LOUISVILLE , KY, US) observed 0456 UTC 19 February 2019
Temperature: -1.1°C (30°F)
Dewpoint: -5.6°C (22°F) [RH = 71%]
Pressure (altimeter): 30.52 inches Hg (1033.6 mb)
[Sea-level pressure: 1034.2 mb]
Winds: from the N (10 degrees) at 6 MPH (5 knots; 2.6 m/s)
Visibility: 10 or more miles (16+ km)
Ceiling: 25000 feet AGL
Clouds: broken clouds at 25000 feet AGL
Weather: no significant weather observed at this time

METAR text: KSDF 190356Z 36004KT 10SM FEW040 BKN250 M01/M06 A3053 RMK AO2 SLP341 T10061056
Conditions at: KSDF (LOUISVILLE , KY, US) observed 0356 UTC 19 February 2019
Temperature: -0.6°C (31°F)
Dewpoint: -5.6°C (22°F) [RH = 69%]
Pressure (altimeter): 30.53 inches Hg (1033.9 mb)
[Sea-level pressure: 1034.1 mb]
Winds: from the N (360 degrees) at 5 MPH (4 knots; 2.1 m/s)
Visibility: 10 or more miles (16+ km)
Ceiling: 25000 feet AGL
Clouds: few clouds at 4000 feet AGL
broken clouds at 25000 feet AGL
Weather: no significant weather observed at this time

METAR text: KSDF 190256Z 34007KT 10SM SCT040 BKN250 M01/M06 A3051 RMK AO2 SLP336 T10061061 51014
Conditions at: KSDF (LOUISVILLE , KY, US) observed 0256 UTC 19 February 2019
Temperature: -0.6°C (31°F)
Dewpoint: -6.1°C (21°F) [RH = 66%]
Pressure (altimeter): 30.51 inches Hg (1033.3 mb)
[Sea-level pressure: 1033.6 mb]
Winds: from the NNW (340 degrees) at 8 MPH (7 knots; 3.6 m/s)
Visibility: 10 or more miles (16+ km)
Ceiling: 25000 feet AGL
Clouds: scattered clouds at 4000 feet AGL
broken clouds at 25000 feet AGL
Weather: no significant weather observed at this time

METAR text: KSDF 190156Z 31007KT 10SM BKN041 OVC060 01/M06 A3051 RMK AO2 SLP335 T00061056
Conditions at: KSDF (LOUISVILLE , KY, US) observed 0156 UTC 19 February 2019
Temperature: 0.6°C (33°F)
Dewpoint: -5.6°C (22°F) [RH = 63%]
Pressure (altimeter): 30.51 inches Hg (1033.3 mb)
[Sea-level pressure: 1033.5 mb]
Winds: from the NW (310 degrees) at 8 MPH (7 knots; 3.6 m/s)
Visibility: 10 or more miles (16+ km)
Ceiling: 4100 feet AGL
Clouds: broken clouds at 4100 feet AGL
overcast cloud deck at 6000 feet AGL
Weather: no significant weather observed at this time

METAR text: KSDF 190056Z 31007KT 10SM OVC040 01/M06 A3050 RMK AO2 SLP331 T00061061
Conditions at: KSDF (LOUISVILLE , KY, US) observed 0056 UTC 19 February 2019
Temperature: 0.6°C (33°F)
Dewpoint: -6.1°C (21°F) [RH = 61%]
Pressure (altimeter): 30.50 inches Hg (1032.9 mb)
[Sea-level pressure: 1033.1 mb]
Winds: from the NW (310 degrees) at 8 MPH (7 knots; 3.6 m/s)
Visibility: 10 or more miles (16+ km)
Ceiling: 4000 feet AGL
Clouds: overcast cloud deck at 4000 feet AGL
Weather: no significant weather observed at this time

METAR text: KSDF 182356Z 32010KT 10SM OVC039 01/M06 A3047 RMK AO2 SLP322 T00111061 10028 20011 52026
Conditions at: KSDF (LOUISVILLE , KY, US) observed 2356 UTC 18 February 2019
Temperature: 1.1°C (34°F)
Dewpoint: -6.1°C (21°F) [RH = 59%]
Pressure (altimeter): 30.47 inches Hg (1031.9 mb)
[Sea-level pressure: 1032.2 mb]
Winds: from the NW (320 degrees) at 12 MPH (10 knots; 5.1 m/s)
Visibility: 10 or more miles (16+ km)
Ceiling: 3900 feet AGL
Clouds: overcast cloud deck at 3900 feet AGL
Weather: no significant weather observed at this time

METAR text: KSDF 182256Z 30007KT 10SM FEW037 OVC041 01/M06 A3045 RMK AO2 SLP314 T00111061
Conditions at: KSDF (LOUISVILLE , KY, US) observed 2256 UTC 18 February 2019
Temperature: 1.1°C (34°F)
Dewpoint: -6.1°C (21°F) [RH = 59%]
Pressure (altimeter): 30.45 inches Hg (1031.2 mb)
[Sea-level pressure: 1031.4 mb]
Winds: from the WNW (300 degrees) at 8 MPH (7 knots; 3.6 m/s)
Visibility: 10 or more miles (16+ km)
Ceiling: 4100 feet AGL
Clouds: few clouds at 3700 feet AGL
overcast cloud deck at 4100 feet AGL
Weather: no significant weather observed at this time

METAR text: KSDF 182156Z 31009KT 10SM FEW035 OVC041 02/M07 A3042 RMK AO2 SLP303 T00171067
Conditions at: KSDF (LOUISVILLE , KY, US) observed 2156 UTC 18 February 2019
Temperature: 1.7°C (35°F)
Dewpoint: -6.7°C (20°F) [RH = 54%]
Pressure (altimeter): 30.42 inches Hg (1030.2 mb)
[Sea-level pressure: 1030.3 mb]
Winds: from the NW (310 degrees) at 10 MPH (9 knots; 4.6 m/s)
Visibility: 10 or more miles (16+ km)
Ceiling: 4100 feet AGL
Clouds: few clouds at 3500 feet AGL
overcast cloud deck at 4100 feet AGL
Weather: no significant weather observed at this time

METAR text: KSDF 182056Z 29012G18KT 10SM OVC042 02/M06 A3039 RMK AO2 SLP295 T00221061 53018
Conditions at: KSDF (LOUISVILLE , KY, US) observed 2056 UTC 18 February 2019
Temperature: 2.2°C (36°F)
Dewpoint: -6.1°C (21°F) [RH = 54%]
Pressure (altimeter): 30.39 inches Hg (1029.2 mb)
[Sea-level pressure: 1029.5 mb]
Winds: from the WNW (290 degrees) at 14 MPH (12 knots; 6.2 m/s)
gusting to 21 MPH (18 knots; 9.3 m/s)
Visibility: 10 or more miles (16+ km)
Ceiling: 4200 feet AGL
Clouds: overcast cloud deck at 4200 feet AGL
Weather: no significant weather observed at this time

METAR text: KSDF 181956Z 31010KT 10SM OVC042 03/M07 A3036 RMK AO2 SLP286 T00281067
Conditions at: KSDF (LOUISVILLE , KY, US) observed 1956 UTC 18 February 2019
Temperature: 2.8°C (37°F)
Dewpoint: -6.7°C (20°F) [RH = 50%]
Pressure (altimeter): 30.36 inches Hg (1028.2 mb)
[Sea-level pressure: 1028.6 mb]
Winds: from the NW (310 degrees) at 12 MPH (10 knots; 5.1 m/s)
Visibility: 10 or more miles (16+ km)
Ceiling: 4200 feet AGL
Clouds: overcast cloud deck at 4200 feet AGL
Weather: no significant weather observed at this time

METAR text: KSDF 181856Z 28015KT 10SM OVC039 02/M07 A3035 RMK AO2 SLP280 T00221072
Conditions at: KSDF (LOUISVILLE , KY, US) observed 1856 UTC 18 February 2019
Temperature: 2.2°C (36°F)
Dewpoint: -7.2°C (19°F) [RH = 50%]
Pressure (altimeter): 30.35 inches Hg (1027.9 mb)
[Sea-level pressure: 1028.0 mb]
Winds: from the W (280 degrees) at 17 MPH (15 knots; 7.7 m/s)
Visibility: 10 or more miles (16+ km)
Ceiling: 3900 feet AGL
Clouds: overcast cloud deck at 3900 feet AGL
Weather: no significant weather observed at this time

METAR text: KSDF 181756Z 27010KT 10SM SCT027 BKN042 OVC050 02/M04 A3034 RMK AO2 SNE34 SLP277 P0000 60000 T00221044 10028 20000 51028
Conditions at: KSDF (LOUISVILLE , KY, US) observed 1756 UTC 18 February 2019
Temperature: 2.2°C (36°F)
Dewpoint: -4.4°C (24°F) [RH = 62%]
Pressure (altimeter): 30.34 inches Hg (1027.5 mb)
[Sea-level pressure: 1027.7 mb]
Winds: from the W (270 degrees) at 12 MPH (10 knots; 5.1 m/s)
Visibility: 10 or more miles (16+ km)
Ceiling: 4200 feet AGL
Clouds: scattered clouds at 2700 feet AGL
broken clouds at 4200 feet AGL
overcast cloud deck at 5000 feet AGL
Weather: no significant weather observed at this time

METAR text: KSDF 181734Z 29008KT 9SM SCT028 BKN036 OVC046 02/M04 A3034 RMK AO2 SNE34 P0000 T00171039
Conditions at: KSDF (LOUISVILLE , KY, US) observed 1734 UTC 18 February 2019
Temperature: 1.7°C (35°F)
Dewpoint: -3.9°C (25°F) [RH = 66%]
Pressure (altimeter): 30.34 inches Hg (1027.5 mb)
Winds: from the WNW (290 degrees) at 9 MPH (8 knots; 4.1 m/s)
Visibility: 9 miles (14 km)
Ceiling: 3600 feet AGL
Clouds: scattered clouds at 2800 feet AGL
broken clouds at 3600 feet AGL
overcast cloud deck at 4600 feet AGL
Weather: no significant weather observed at this time

METAR text: KSDF 181707Z 29013KT 3SM R35R/4000VP6000FT -SN BKN017 OVC028 00/M03 A3033 RMK AO2 P0000 T00001033
Conditions at: KSDF (LOUISVILLE , KY, US) observed 1707 UTC 18 February 2019
Temperature: 0.0°C (32°F)
Dewpoint: -3.3°C (26°F) [RH = 78%]
Pressure (altimeter): 30.33 inches Hg (1027.2 mb)
Winds: from the WNW (290 degrees) at 15 MPH (13 knots; 6.7 m/s)
Visibility: 3 miles ( 5 km)
Ceiling: 1700 feet AGL
Clouds: broken clouds at 1700 feet AGL
overcast cloud deck at 2800 feet AGL
Weather: -SN  (light snow)

METAR text: KSDF 181659Z 30014G23KT 1 1/2SM -SN BKN017 OVC034 01/M03 A3033 RMK AO2 TWR VIS 2 1/2 P0000 T00061033
Conditions at: KSDF (LOUISVILLE , KY, US) observed 1659 UTC 18 February 2019
Temperature: 0.6°C (33°F)
Dewpoint: -3.3°C (26°F) [RH = 75%]
Pressure (altimeter): 30.33 inches Hg (1027.2 mb)
Winds: from the WNW (300 degrees) at 16 MPH (14 knots; 7.2 m/s)
gusting to 26 MPH (23 knots; 11.8 m/s)
Visibility: 1.50 miles (2.41 km)
Ceiling: 1700 feet AGL
Clouds: broken clouds at 1700 feet AGL
overcast cloud deck at 3400 feet AGL
Weather: -SN  (light snow)

METAR text: KSDF 181656Z 31016G23KT 3SM -SN BKN029 OVC050 01/M04 A3032 RMK AO2 SLP272 P0000 T00111039
Conditions at: KSDF (LOUISVILLE , KY, US) observed 1656 UTC 18 February 2019
Temperature: 1.1°C (34°F)
Dewpoint: -3.9°C (25°F) [RH = 69%]
Pressure (altimeter): 30.32 inches Hg (1026.8 mb)
[Sea-level pressure: 1027.2 mb]
Winds: from the NW (310 degrees) at 18 MPH (16 knots; 8.2 m/s)
gusting to 26 MPH (23 knots; 11.8 m/s)
Visibility: 3 miles ( 5 km)
Ceiling: 2900 feet AGL
Clouds: broken clouds at 2900 feet AGL
overcast cloud deck at 5000 feet AGL
Weather: -SN  (light snow)

METAR text: KSDF 181650Z 27015KT 6SM -SN BKN029 OVC050 02/M04 A3031 RMK AO2 P0000
Conditions at: KSDF (LOUISVILLE , KY, US) observed 1650 UTC 18 February 2019
Temperature: 2.0°C (36°F)
Dewpoint: -4.0°C (25°F) [RH = 64%]
Pressure (altimeter): 30.31 inches Hg (1026.5 mb)
Winds: from the W (270 degrees) at 17 MPH (15 knots; 7.7 m/s)
Visibility: 6 miles (10 km)
Ceiling: 2900 feet AGL
Clouds: broken clouds at 2900 feet AGL
overcast cloud deck at 5000 feet AGL
Weather: -SN  (light snow)

METAR text: KSDF 181556Z 26012KT 9SM -SN SCT030 OVC049 02/M05 A3028 RMK AO2 SLP257 P0000 T00221050
Conditions at: KSDF (LOUISVILLE , KY, US) observed 1556 UTC 18 February 2019
Temperature: 2.2°C (36°F)
Dewpoint: -5.0°C (23°F) [RH = 59%]
Pressure (altimeter): 30.28 inches Hg (1025.5 mb)
[Sea-level pressure: 1025.7 mb]
Winds: from the W (260 degrees) at 14 MPH (12 knots; 6.2 m/s)
Visibility: 9 miles (14 km)
Ceiling: 4900 feet AGL
Clouds: scattered clouds at 3000 feet AGL
overcast cloud deck at 4900 feet AGL
Weather: -SN  (light snow)

METAR text: KSDF 181539Z 26012KT 9SM -SN SCT027 OVC049 02/M05 A3027 RMK AO2 P0000 T00221050
Conditions at: KSDF (LOUISVILLE , KY, US) observed 1539 UTC 18 February 2019
Temperature: 2.2°C (36°F)
Dewpoint: -5.0°C (23°F) [RH = 59%]
Pressure (altimeter): 30.27 inches Hg (1025.1 mb)
Winds: from the W (260 degrees) at 14 MPH (12 knots; 6.2 m/s)
Visibility: 9 miles (14 km)
Ceiling: 4900 feet AGL
Clouds: scattered clouds at 2700 feet AGL
overcast cloud deck at 4900 feet AGL
Weather: -SN  (light snow)

METAR text: KSDF 181503Z 25014KT 9SM -SN BKN027 OVC047 02/M04 A3026 RMK AO2 P0000 T00171044
Conditions at: KSDF (LOUISVILLE , KY, US) observed 1503 UTC 18 February 2019
Temperature: 1.7°C (35°F)
Dewpoint: -4.4°C (24°F) [RH = 64%]
Pressure (altimeter): 30.26 inches Hg (1024.8 mb)
Winds: from the WSW (250 degrees) at 16 MPH (14 knots; 7.2 m/s)
Visibility: 9 miles (14 km)
Ceiling: 2700 feet AGL
Clouds: broken clouds at 2700 feet AGL
overcast cloud deck at 4700 feet AGL
Weather: -SN  (light snow)

METAR text: KSDF 181456Z 24011KT 10SM -SN SCT027 OVC047 02/M04 A3025 RMK AO2 SNE14B52 SLP248 P0000 60000 T00171044 51039
Conditions at: KSDF (LOUISVILLE , KY, US) observed 1456 UTC 18 February 2019
Temperature: 1.7°C (35°F)
Dewpoint: -4.4°C (24°F) [RH = 64%]
Pressure (altimeter): 30.25 inches Hg (1024.5 mb)
[Sea-level pressure: 1024.8 mb]
Winds: from the WSW (240 degrees) at 13 MPH (11 knots; 5.7 m/s)
Visibility: 10 or more miles (16+ km)
Ceiling: 4700 feet AGL
Clouds: scattered clouds at 2700 feet AGL
overcast cloud deck at 4700 feet AGL
Weather: -SN  (light snow)

METAR text: KSDF 181414Z 25010KT 9SM FEW025 OVC045 02/M04 A3023 RMK AO2 SNE14 P0000 T00171044
Conditions at: KSDF (LOUISVILLE , KY, US) observed 1414 UTC 18 February 2019
Temperature: 1.7°C (35°F)
Dewpoint: -4.4°C (24°F) [RH = 64%]
Pressure (altimeter): 30.23 inches Hg (1023.8 mb)
Winds: from the WSW (250 degrees) at 12 MPH (10 knots; 5.1 m/s)
Visibility: 9 miles (14 km)
Ceiling: 4500 feet AGL
Clouds: few clouds at 2500 feet AGL
overcast cloud deck at 4500 feet AGL
Weather: no significant weather observed at this time

METAR text: KSDF 181356Z 26014KT 9SM -SN BKN025 OVC040 01/M04 A3022 RMK AO2 SNB46 SLP238 P0000 T00111044
Conditions at: KSDF (LOUISVILLE , KY, US) observed 1356 UTC 18 February 2019
Temperature: 1.1°C (34°F)
Dewpoint: -4.4°C (24°F) [RH = 67%]
Pressure (altimeter): 30.22 inches Hg (1023.5 mb)
[Sea-level pressure: 1023.8 mb]
Winds: from the W (260 degrees) at 16 MPH (14 knots; 7.2 m/s)
Visibility: 9 miles (14 km)
Ceiling: 2500 feet AGL
Clouds: broken clouds at 2500 feet AGL
overcast cloud deck at 4000 feet AGL
Weather: -SN  (light snow)

METAR text: KSDF 181346Z 26010KT 9SM -SN BKN025 OVC040 01/M04 A3022 RMK AO2 SNB46 P0000 T00111044
Conditions at: KSDF (LOUISVILLE , KY, US) observed 1346 UTC 18 February 2019
Temperature: 1.1°C (34°F)
Dewpoint: -4.4°C (24°F) [RH = 67%]
Pressure (altimeter): 30.22 inches Hg (1023.5 mb)
Winds: from the W (260 degrees) at 12 MPH (10 knots; 5.1 m/s)
Visibility: 9 miles (14 km)
Ceiling: 2500 feet AGL
Clouds: broken clouds at 2500 feet AGL
overcast cloud deck at 4000 feet AGL
Weather: -SN  (light snow)

METAR text: KSDF 181256Z 28013G18KT 10SM FEW023 OVC039 01/M04 A3017 RMK AO2 SLP219 T00111044
Conditions at: KSDF (LOUISVILLE , KY, US) observed 1256 UTC 18 February 2019
Temperature: 1.1°C (34°F)
Dewpoint: -4.4°C (24°F) [RH = 67%]
Pressure (altimeter): 30.17 inches Hg (1021.8 mb)
[Sea-level pressure: 1021.9 mb]
Winds: from the W (280 degrees) at 15 MPH (13 knots; 6.7 m/s)
gusting to 21 MPH (18 knots; 9.3 m/s)
Visibility: 10 or more miles (16+ km)
Ceiling: 3900 feet AGL
Clouds: few clouds at 2300 feet AGL
overcast cloud deck at 3900 feet AGL
Weather: no significant weather observed at this time

METAR text: KSDF 181156Z 28013KT 10SM FEW022 OVC042 01/M03 A3014 RMK AO2 SLP208 60000 T00111033 10028 20011 53030
Conditions at: KSDF (LOUISVILLE , KY, US) observed 1156 UTC 18 February 2019
Temperature: 1.1°C (34°F)
Dewpoint: -3.3°C (26°F) [RH = 72%]
Pressure (altimeter): 30.14 inches Hg (1020.7 mb)
[Sea-level pressure: 1020.8 mb]
Winds: from the W (280 degrees) at 15 MPH (13 knots; 6.7 m/s)
Visibility: 10 or more miles (16+ km)
Ceiling: 4200 feet AGL
Clouds: few clouds at 2200 feet AGL
overcast cloud deck at 4200 feet AGL
Weather: no significant weather observed at this time

METAR text: KSDF 181119Z 27012KT 10SM SCT022 OVC042 02/M03 A3013 RMK AO2 T00171033
Conditions at: KSDF (LOUISVILLE , KY, US) observed 1119 UTC 18 February 2019
Temperature: 1.7°C (35°F)
Dewpoint: -3.3°C (26°F) [RH = 69%]
Pressure (altimeter): 30.13 inches Hg (1020.4 mb)
Winds: from the W (270 degrees) at 14 MPH (12 knots; 6.2 m/s)
Visibility: 10 or more miles (16+ km)
Ceiling: 4200 feet AGL
Clouds: scattered clouds at 2200 feet AGL
overcast cloud deck at 4200 feet AGL
Weather: no significant weather observed at this time

METAR text: KSDF 181111Z 27012KT 10SM BKN021 OVC040 02/M03 A3012 RMK AO2 T00171028
Conditions at: KSDF (LOUISVILLE , KY, US) observed 1111 UTC 18 February 2019
Temperature: 1.7°C (35°F)
Dewpoint: -2.8°C (27°F) [RH = 72%]
Pressure (altimeter): 30.12 inches Hg (1020.1 mb)
Winds: from the W (270 degrees) at 14 MPH (12 knots; 6.2 m/s)
Visibility: 10 or more miles (16+ km)
Ceiling: 2100 feet AGL
Clouds: broken clouds at 2100 feet AGL
overcast cloud deck at 4000 feet AGL
Weather: no significant weather observed at this time

METAR text: KSDF 181056Z 27011KT 10SM SCT019 OVC042 02/M03 A3011 RMK AO2 SLP197 T00171028
Conditions at: KSDF (LOUISVILLE , KY, US) observed 1056 UTC 18 February 2019
Temperature: 1.7°C (35°F)
Dewpoint: -2.8°C (27°F) [RH = 72%]
Pressure (altimeter): 30.11 inches Hg (1019.7 mb)
[Sea-level pressure: 1019.7 mb]
Winds: from the W (270 degrees) at 13 MPH (11 knots; 5.7 m/s)
Visibility: 10 or more miles (16+ km)
Ceiling: 4200 feet AGL
Clouds: scattered clouds at 1900 feet AGL
overcast cloud deck at 4200 feet AGL
Weather: no significant weather observed at this time

METAR text: KSDF 181048Z 28009KT 10SM SCT019 OVC042 02/M03 A3010 RMK AO2 T00171028
Conditions at: KSDF (LOUISVILLE , KY, US) observed 1048 UTC 18 February 2019
Temperature: 1.7°C (35°F)
Dewpoint: -2.8°C (27°F) [RH = 72%]
Pressure (altimeter): 30.10 inches Hg (1019.4 mb)
Winds: from the W (280 degrees) at 10 MPH (9 knots; 4.6 m/s)
Visibility: 10 or more miles (16+ km)
Ceiling: 4200 feet AGL
Clouds: scattered clouds at 1900 feet AGL
overcast cloud deck at 4200 feet AGL
Weather: no significant weather observed at this time

METAR text: KSDF 180956Z 28011KT 10SM BKN019 OVC033 02/M03 A3007 RMK AO2 SLP187 T00171028
Conditions at: KSDF (LOUISVILLE , KY, US) observed 0956 UTC 18 February 2019
Temperature: 1.7°C (35°F)
Dewpoint: -2.8°C (27°F) [RH = 72%]
Pressure (altimeter): 30.07 inches Hg (1018.4 mb)
[Sea-level pressure: 1018.7 mb]
Winds: from the W (280 degrees) at 13 MPH (11 knots; 5.7 m/s)
Visibility: 10 or more miles (16+ km)
Ceiling: 1900 feet AGL
Clouds: broken clouds at 1900 feet AGL
overcast cloud deck at 3300 feet AGL
Weather: no significant weather observed at this time

METAR text: KSDF 180856Z 31007KT 10SM BKN019 OVC027 02/M02 A3005 RMK AO2 SNE48 SLP179 P0000 60000 T00221017 51020
Conditions at: KSDF (LOUISVILLE , KY, US) observed 0856 UTC 18 February 2019
Temperature: 2.2°C (36°F)
Dewpoint: -1.7°C (29°F) [RH = 75%]
Pressure (altimeter): 30.05 inches Hg (1017.7 mb)
[Sea-level pressure: 1017.9 mb]
Winds: from the NW (310 degrees) at 8 MPH (7 knots; 3.6 m/s)
Visibility: 10 or more miles (16+ km)
Ceiling: 1900 feet AGL
Clouds: broken clouds at 1900 feet AGL
overcast cloud deck at 2700 feet AGL
Weather: no significant weather observed at this time

METAR text: KSDF 180756Z 30010KT 9SM -SN OVC021 03/M02 A3004 RMK AO2 SNB48 SLP173 P0000 T00281017
Conditions at: KSDF (LOUISVILLE , KY, US) observed 0756 UTC 18 February 2019
Temperature: 2.8°C (37°F)
Dewpoint: -1.7°C (29°F) [RH = 72%]
Pressure (altimeter): 30.04 inches Hg (1017.4 mb)
[Sea-level pressure: 1017.3 mb]
Winds: from the WNW (300 degrees) at 12 MPH (10 knots; 5.1 m/s)
Visibility: 9 miles (14 km)
Ceiling: 2100 feet AGL
Clouds: overcast cloud deck at 2100 feet AGL
Weather: -SN  (light snow)

METAR text: KSDF 180707Z 29006KT 10SM BKN025 OVC031 03/M02 A3002 RMK AO2 T00281017
Conditions at: KSDF (LOUISVILLE , KY, US) observed 0707 UTC 18 February 2019
Temperature: 2.8°C (37°F)
Dewpoint: -1.7°C (29°F) [RH = 72%]
Pressure (altimeter): 30.02 inches Hg (1016.7 mb)
Winds: from the WNW (290 degrees) at 7 MPH (6 knots; 3.1 m/s)
Visibility: 10 or more miles (16+ km)
Ceiling: 2500 feet AGL
Clouds: broken clouds at 2500 feet AGL
overcast cloud deck at 3100 feet AGL
Weather: no significant weather observed at this time

METAR text: KSDF 180656Z 29008KT 10SM FEW023 OVC030 03/M02 A3001 RMK AO2 SLP165 T00281022
Conditions at: KSDF (LOUISVILLE , KY, US) observed 0656 UTC 18 February 2019
Temperature: 2.8°C (37°F)
Dewpoint: -2.2°C (28°F) [RH = 70%]
Pressure (altimeter): 30.01 inches Hg (1016.3 mb)
[Sea-level pressure: 1016.5 mb]
Winds: from the WNW (290 degrees) at 9 MPH (8 knots; 4.1 m/s)
Visibility: 10 or more miles (16+ km)
Ceiling: 3000 feet AGL
Clouds: few clouds at 2300 feet AGL
overcast cloud deck at 3000 feet AGL
Weather: no significant weather observed at this time

METAR text: KSDF 180634Z 29008KT 10SM SCT023 OVC030 03/M02 A3001 RMK AO2 T00281017
Conditions at: KSDF (LOUISVILLE , KY, US) observed 0634 UTC 18 February 2019
Temperature: 2.8°C (37°F)
Dewpoint: -1.7°C (29°F) [RH = 72%]
Pressure (altimeter): 30.01 inches Hg (1016.3 mb)
Winds: from the WNW (290 degrees) at 9 MPH (8 knots; 4.1 m/s)
Visibility: 10 or more miles (16+ km)
Ceiling: 3000 feet AGL
Clouds: scattered clouds at 2300 feet AGL
overcast cloud deck at 3000 feet AGL
Weather: no significant weather observed at this time

METAR text: KSDF 180556Z 30009KT 10SM OVC021 03/M02 A2999 RMK AO2 SLP158 T00281017 10050 20028 53031
Conditions at: KSDF (LOUISVILLE , KY, US) observed 0556 UTC 18 February 2019
Temperature: 2.8°C (37°F)
Dewpoint: -1.7°C (29°F) [RH = 72%]
Pressure (altimeter): 29.99 inches Hg (1015.7 mb)
[Sea-level pressure: 1015.8 mb]
Winds: from the WNW (300 degrees) at 10 MPH (9 knots; 4.6 m/s)
Visibility: 10 or more miles (16+ km)
Ceiling: 2100 feet AGL
Clouds: overcast cloud deck at 2100 feet AGL
Weather: no significant weather observed at this time

METAR text: KSDF 180456Z 30010KT 9SM BKN016 BKN022 OVC035 03/M01 A2995 RMK AO2 SLP146 T00331006 400500000
Conditions at: KSDF (LOUISVILLE , KY, US) observed 0456 UTC 18 February 2019
Temperature: 3.3°C (38°F)
Dewpoint: -0.6°C (31°F) [RH = 76%]
Pressure (altimeter): 29.95 inches Hg (1014.3 mb)
[Sea-level pressure: 1014.6 mb]
Winds: from the WNW (300 degrees) at 12 MPH (10 knots; 5.1 m/s)
Visibility: 9 miles (14 km)
Ceiling: 1600 feet AGL
Clouds: broken clouds at 1600 feet AGL
broken clouds at 2200 feet AGL
overcast cloud deck at 3500 feet AGL
Weather: no significant weather observed at this time

METAR text: KSDF 180425Z 29013KT 10SM SCT013 BKN017 OVC032 03/00 A2993 RMK AO2 T00330000
Conditions at: KSDF (LOUISVILLE , KY, US) observed 0425 UTC 18 February 2019
Temperature: 3.3°C (38°F)
Dewpoint: 0.0°C (32°F) [RH = 79%]
Pressure (altimeter): 29.93 inches Hg (1013.6 mb)
Winds: from the WNW (290 degrees) at 15 MPH (13 knots; 6.7 m/s)
Visibility: 10 or more miles (16+ km)
Ceiling: 1700 feet AGL
Clouds: scattered clouds at 1300 feet AGL
broken clouds at 1700 feet AGL
overcast cloud deck at 3200 feet AGL
Weather: no significant weather observed at this time

METAR text: KSDF 180356Z 31009KT 8SM BKN013 OVC015 04/01 A2992 RMK AO2 SLP136 T00390006
Conditions at: KSDF (LOUISVILLE , KY, US) observed 0356 UTC 18 February 2019
Temperature: 3.9°C (39°F)
Dewpoint: 0.6°C (33°F) [RH = 79%]
Pressure (altimeter): 29.92 inches Hg (1013.3 mb)
[Sea-level pressure: 1013.6 mb]
Winds: from the NW (310 degrees) at 10 MPH (9 knots; 4.6 m/s)
Visibility: 8 miles (13 km)
Ceiling: 1300 feet AGL
Clouds: broken clouds at 1300 feet AGL
overcast cloud deck at 1500 feet AGL
Weather: no significant weather observed at this time

METAR text: KSDF 180349Z 30012KT 8SM BKN013 OVC015 04/01 A2992 RMK AO2 T00390006
Conditions at: KSDF (LOUISVILLE , KY, US) observed 0349 UTC 18 February 2019
Temperature: 3.9°C (39°F)
Dewpoint: 0.6°C (33°F) [RH = 79%]
Pressure (altimeter): 29.92 inches Hg (1013.3 mb)
Winds: from the WNW (300 degrees) at 14 MPH (12 knots; 6.2 m/s)
Visibility: 8 miles (13 km)
Ceiling: 1300 feet AGL
Clouds: broken clouds at 1300 feet AGL
overcast cloud deck at 1500 feet AGL
Weather: no significant weather observed at this time

METAR text: KSDF 180256Z 31012KT 10SM BKN017 OVC024 04/01 A2990 RMK AO2 SLP126 T00440006 51027
Conditions at: KSDF (LOUISVILLE , KY, US) observed 0256 UTC 18 February 2019
Temperature: 4.4°C (40°F)
Dewpoint: 0.6°C (33°F) [RH = 76%]
Pressure (altimeter): 29.90 inches Hg (1012.6 mb)
[Sea-level pressure: 1012.6 mb]
Winds: from the NW (310 degrees) at 14 MPH (12 knots; 6.2 m/s)
Visibility: 10 or more miles (16+ km)
Ceiling: 1700 feet AGL
Clouds: broken clouds at 1700 feet AGL
overcast cloud deck at 2400 feet AGL
Weather: no significant weather observed at this time

METAR text: KSDF 180156Z 29006KT 10SM BKN016 BKN022 OVC031 05/02 A2988 RMK AO2 SLP119 T00500017
Conditions at: KSDF (LOUISVILLE , KY, US) observed 0156 UTC 18 February 2019
Temperature: 5.0°C (41°F)
Dewpoint: 1.7°C (35°F) [RH = 79%]
Pressure (altimeter): 29.88 inches Hg (1011.9 mb)
[Sea-level pressure: 1011.9 mb]
Winds: from the WNW (290 degrees) at 7 MPH (6 knots; 3.1 m/s)
Visibility: 10 or more miles (16+ km)
Ceiling: 1600 feet AGL
Clouds: broken clouds at 1600 feet AGL
broken clouds at 2200 feet AGL
overcast cloud deck at 3100 feet AGL
Weather: no significant weather observed at this time

METAR text: KSDF 180144Z 29007KT 10SM OVC016 05/02 A2986 RMK AO2 T00500022
Conditions at: KSDF (LOUISVILLE , KY, US) observed 0144 UTC 18 February 2019
Temperature: 5.0°C (41°F)
Dewpoint: 2.2°C (36°F) [RH = 82%]
Pressure (altimeter): 29.86 inches Hg (1011.3 mb)
Winds: from the WNW (290 degrees) at 8 MPH (7 knots; 3.6 m/s)
Visibility: 10 or more miles (16+ km)
Ceiling: 1600 feet AGL
Clouds: overcast cloud deck at 1600 feet AGL
Weather: no significant weather observed at this time

METAR text: KSDF 180056Z 28006KT 8SM OVC010 05/03 A2984 RMK AO2 SLP107 T00500028
Conditions at: KSDF (LOUISVILLE , KY, US) observed 0056 UTC 18 February 2019
Temperature: 5.0°C (41°F)
Dewpoint: 2.8°C (37°F) [RH = 86%]
Pressure (altimeter): 29.84 inches Hg (1010.6 mb)
[Sea-level pressure: 1010.7 mb]
Winds: from the W (280 degrees) at 7 MPH (6 knots; 3.1 m/s)
Visibility: 8 miles (13 km)
Ceiling: 1000 feet AGL
Clouds: overcast cloud deck at 1000 feet AGL
Weather: no significant weather observed at this time

METAR text: KSDF 172356Z 27006KT 10SM OVC011 05/02 A2982 RMK AO2 SLP099 T00500022 10050 20022 53018
Conditions at: KSDF (LOUISVILLE , KY, US) observed 2356 UTC 17 February 2019
Temperature: 5.0°C (41°F)
Dewpoint: 2.2°C (36°F) [RH = 82%]
Pressure (altimeter): 29.82 inches Hg (1009.9 mb)
[Sea-level pressure: 1009.9 mb]
Winds: from the W (270 degrees) at 7 MPH (6 knots; 3.1 m/s)
Visibility: 10 or more miles (16+ km)
Ceiling: 1100 feet AGL
Clouds: overcast cloud deck at 1100 feet AGL
Weather: no significant weather observed at this time

Forecast for: KSDF (LOUISVILLE , KY, US)
Text: KSDF 190722Z 1907/2012 VRB04KT P6SM SCT250
Forecast period: 0700 to 1500 UTC 19 February 2019
Forecast type: FROM: standard forecast or significant change
Winds: variable direction winds at 5 MPH (4 knots; 2.1 m/s)
Visibility: 6 or more miles 10+ km)
Ceiling: at least 12,000 feet AGL
Clouds: scattered clouds at 25000 feet AGL
Weather: no significant weather forecast for this period
Text: FM191500 07008KT P6SM BKN200
Forecast period: 1500 UTC 19 February 2019 to 0300 UTC 20 February 2019
Forecast type: FROM: standard forecast or significant change
Winds: from the ENE (70 degrees) at 9 MPH (8 knots; 4.1 m/s)
Visibility: 6 or more miles 10+ km)
Ceiling: 20000 feet AGL
Clouds: broken clouds at 20000 feet AGL
Weather: no significant weather forecast for this period
Text: PROB30 2000/2003 6SM -RASN SCT040 BKN060
Forecast period: 0000 to 0300 UTC 20 February 2019
Forecast type: PROBABLE: 30 percent likelihood of the following during this time
Visibility: 6 miles (10 km)
Ceiling: 6000 feet AGL
Clouds: scattered clouds at 4000 feet AGL
broken clouds at 6000 feet AGL
Weather: -RA -SN  (light rain, light snow)
Text: FM200300 08010KT 5SM -RASN OVC024
Forecast period: 0300 to 0500 UTC 20 February 2019
Forecast type: FROM: standard forecast or significant change
Winds: from the E (80 degrees) at 12 MPH (10 knots; 5.1 m/s)
Visibility: 5 miles (8 km)
Ceiling: 2400 feet AGL
Clouds: overcast cloud deck at 2400 feet AGL
Weather: -RA -SN  (light rain, light snow)
Text: FM200500 07012KT 2SM -RA BKN012 WS020/11039KT
Forecast period: 0500 to 1200 UTC 20 February 2019
Forecast type: FROM: standard forecast or significant change
Winds: from the ENE (70 degrees) at 14 MPH (12 knots; 6.2 m/s)
Visibility: 2.00 miles (3.22 km)
Ceiling: 1200 feet AGL
Clouds: broken clouds at 1200 feet AGL
Wind Shear: at 2000 feet ( 610 m) AGL, from the ESE (110 degrees) at 45 MPH (39 knots; 20.3 m/s)
Weather: -RA  (light rain)